sensor_id;sensor_type;location;lat;lon;timestamp;P1;durP1;ratioP1;P2;durP2;ratioP2
72557;SDS011;60583;50.094;8.748;2023-03-31T00:01:27;6.20;;;1.38;;
72557;SDS011;60583;50.094;8.748;2023-03-31T00:03:53;3.78;;;1.10;;
72557;SDS011;60583;50.094;8.748;2023-03-31T00:06:28;5.25;;;1.20;;
72557;SDS011;60583;50.094;8.748;2023-03-31T00:08:55;3.70;;;1.00;;
72557;SDS011;60583;50.094;8.748;2023-03-31T00:11:27;4.90;;;1.15;;
72557;SDS011;60583;50.094;8.748;2023-03-31T00:13:53;5.03;;;1.08;;
72557;SDS011;60583;50.094;8.748;2023-03-31T00:16:18;5.10;;;1.35;;
72557;SDS011;60583;50.094;8.748;2023-03-31T00:18:44;5.10;;;1.33;;
72557;SDS011;60583;50.094;8.748;2023-03-31T00:21:12;4.30;;;1.13;;
72557;SDS011;60583;50.094;8.748;2023-03-31T00:23:55;5.63;;;1.55;;
72557;SDS011;60583;50.094;8.748;2023-03-31T00:26:23;4.30;;;1.15;;
72557;SDS011;60583;50.094;8.748;2023-03-31T00:28:50;4.00;;;1.00;;
72557;SDS011;60583;50.094;8.748;2023-03-31T00:31:16;3.67;;;1.10;;
72557;SDS011;60583;50.094;8.748;2023-03-31T00:33:42;4.95;;;1.35;;
72557;SDS011;60583;50.094;8.748;2023-03-31T00:36:07;4.80;;;1.13;;
72557;SDS011;60583;50.094;8.748;2023-03-31T00:38:33;5.65;;;1.40;;
72557;SDS011;60583;50.094;8.748;2023-03-31T00:40:59;3.60;;;1.20;;
72557;SDS011;60583;50.094;8.748;2023-03-31T00:46:06;3.97;;;1.25;;
72557;SDS011;60583;50.094;8.748;2023-03-31T00:49:00;5.97;;;1.85;;
72557;SDS011;60583;50.094;8.748;2023-03-31T00:51:26;5.68;;;1.17;;
72557;SDS011;60583;50.094;8.748;2023-03-31T00:53:55;6.43;;;1.38;;
72557;SDS011;60583;50.094;8.748;2023-03-31T00:56:27;7.88;;;1.48;;
72557;SDS011;60583;50.094;8.748;2023-03-31T01:04:01;6.35;;;1.20;;
72557;SDS011;60583;50.094;8.748;2023-03-31T01:06:27;4.18;;;1.40;;
72557;SDS011;60583;50.094;8.748;2023-03-31T01:08:55;7.57;;;1.40;;
72557;SDS011;60583;50.094;8.748;2023-03-31T01:11:22;5.43;;;1.52;;
72557;SDS011;60583;50.094;8.748;2023-03-31T01:13:52;5.97;;;1.85;;
72557;SDS011;60583;50.094;8.748;2023-03-31T01:16:20;6.38;;;1.60;;
72557;SDS011;60583;50.094;8.748;2023-03-31T01:18:46;6.13;;;1.52;;
72557;SDS011;60583;50.094;8.748;2023-03-31T01:32:26;6.10;;;1.48;;
72557;SDS011;60583;50.094;8.748;2023-03-31T01:38:09;5.25;;;1.33;;
72557;SDS011;60583;50.094;8.748;2023-03-31T01:40:56;4.57;;;1.65;;
72557;SDS011;60583;50.094;8.748;2023-03-31T01:52:22;6.32;;;1.80;;
72557;SDS011;60583;50.094;8.748;2023-03-31T01:55:00;5.80;;;1.92;;
72557;SDS011;60583;50.094;8.748;2023-03-31T01:57:34;8.75;;;2.17;;
72557;SDS011;60583;50.094;8.748;2023-03-31T02:05:25;5.63;;;1.60;;
72557;SDS011;60583;50.094;8.748;2023-03-31T02:08:02;7.30;;;2.00;;
72557;SDS011;60583;50.094;8.748;2023-03-31T02:10:32;6.93;;;1.90;;
72557;SDS011;60583;50.094;8.748;2023-03-31T02:13:00;5.93;;;1.67;;
72557;SDS011;60583;50.094;8.748;2023-03-31T02:15:29;6.05;;;1.60;;
72557;SDS011;60583;50.094;8.748;2023-03-31T02:17:59;4.93;;;1.70;;
72557;SDS011;60583;50.094;8.748;2023-03-31T02:20:31;5.47;;;1.50;;
72557;SDS011;60583;50.094;8.748;2023-03-31T02:22:57;7.10;;;1.67;;
72557;SDS011;60583;50.094;8.748;2023-03-31T02:25:26;6.38;;;1.65;;
72557;SDS011;60583;50.094;8.748;2023-03-31T02:28:01;7.47;;;1.40;;
72557;SDS011;60583;50.094;8.748;2023-03-31T02:30:53;4.32;;;1.60;;
72557;SDS011;60583;50.094;8.748;2023-03-31T02:33:34;6.70;;;1.88;;
72557;SDS011;60583;50.094;8.748;2023-03-31T02:36:00;7.05;;;1.70;;
72557;SDS011;60583;50.094;8.748;2023-03-31T02:38:26;7.45;;;2.15;;
72557;SDS011;60583;50.094;8.748;2023-03-31T02:40:52;5.28;;;1.77;;
72557;SDS011;60583;50.094;8.748;2023-03-31T02:43:18;7.57;;;2.42;;
72557;SDS011;60583;50.094;8.748;2023-03-31T02:45:44;6.35;;;2.10;;
72557;SDS011;60583;50.094;8.748;2023-03-31T02:48:14;5.00;;;1.92;;
72557;SDS011;60583;50.094;8.748;2023-03-31T02:59:14;6.35;;;2.17;;
72557;SDS011;60583;50.094;8.748;2023-03-31T03:01:54;7.80;;;2.38;;
72557;SDS011;60583;50.094;8.748;2023-03-31T03:09:47;6.20;;;1.77;;
72557;SDS011;60583;50.094;8.748;2023-03-31T03:14:44;5.68;;;1.30;;
72557;SDS011;60583;50.094;8.748;2023-03-31T03:17:20;5.28;;;1.30;;
72557;SDS011;60583;50.094;8.748;2023-03-31T03:19:54;7.75;;;1.75;;
72557;SDS011;60583;50.094;8.748;2023-03-31T03:22:23;4.20;;;1.30;;
72557;SDS011;60583;50.094;8.748;2023-03-31T03:24:49;7.57;;;1.83;;
72557;SDS011;60583;50.094;8.748;2023-03-31T03:27:15;5.80;;;1.40;;
72557;SDS011;60583;50.094;8.748;2023-03-31T03:29:41;7.68;;;1.73;;
72557;SDS011;60583;50.094;8.748;2023-03-31T03:32:08;5.75;;;1.33;;
72557;SDS011;60583;50.094;8.748;2023-03-31T03:34:34;5.10;;;1.70;;
72557;SDS011;60583;50.094;8.748;2023-03-31T03:36:59;6.03;;;1.50;;
72557;SDS011;60583;50.094;8.748;2023-03-31T03:39:25;5.85;;;1.70;;
72557;SDS011;60583;50.094;8.748;2023-03-31T03:41:50;8.45;;;1.70;;
72557;SDS011;60583;50.094;8.748;2023-03-31T03:44:15;6.45;;;1.80;;
72557;SDS011;60583;50.094;8.748;2023-03-31T03:46:41;8.55;;;1.73;;
72557;SDS011;60583;50.094;8.748;2023-03-31T03:49:08;6.72;;;1.70;;
72557;SDS011;60583;50.094;8.748;2023-03-31T03:51:33;4.45;;;1.60;;
72557;SDS011;60583;50.094;8.748;2023-03-31T03:53:59;8.23;;;1.80;;
72557;SDS011;60583;50.094;8.748;2023-03-31T03:56:24;6.43;;;1.80;;
72557;SDS011;60583;50.094;8.748;2023-03-31T03:58:50;7.43;;;2.20;;
72557;SDS011;60583;50.094;8.748;2023-03-31T04:01:16;7.10;;;2.00;;
72557;SDS011;60583;50.094;8.748;2023-03-31T04:03:42;6.40;;;1.98;;
72557;SDS011;60583;50.094;8.748;2023-03-31T04:06:08;10.75;;;2.00;;
72557;SDS011;60583;50.094;8.748;2023-03-31T04:08:34;6.93;;;1.90;;
72557;SDS011;60583;50.094;8.748;2023-03-31T04:10:59;6.40;;;1.70;;
72557;SDS011;60583;50.094;8.748;2023-03-31T04:13:25;7.70;;;2.17;;
72557;SDS011;60583;50.094;8.748;2023-03-31T04:15:51;7.88;;;1.80;;
72557;SDS011;60583;50.094;8.748;2023-03-31T04:18:16;6.15;;;1.85;;
72557;SDS011;60583;50.094;8.748;2023-03-31T04:20:51;6.38;;;1.63;;
72557;SDS011;60583;50.094;8.748;2023-03-31T04:23:33;10.07;;;2.75;;
72557;SDS011;60583;50.094;8.748;2023-03-31T04:26:14;7.97;;;2.08;;
72557;SDS011;60583;50.094;8.748;2023-03-31T04:28:41;4.18;;;1.60;;
72557;SDS011;60583;50.094;8.748;2023-03-31T04:31:11;7.30;;;1.85;;
72557;SDS011;60583;50.094;8.748;2023-03-31T04:33:52;7.20;;;1.70;;
72557;SDS011;60583;50.094;8.748;2023-03-31T04:36:19;7.28;;;1.92;;
72557;SDS011;60583;50.094;8.748;2023-03-31T04:38:45;9.55;;;2.28;;
72557;SDS011;60583;50.094;8.748;2023-03-31T04:41:17;8.18;;;2.03;;
72557;SDS011;60583;50.094;8.748;2023-03-31T04:43:43;6.57;;;1.80;;
72557;SDS011;60583;50.094;8.748;2023-03-31T04:46:09;6.40;;;1.90;;
72557;SDS011;60583;50.094;8.748;2023-03-31T04:48:34;10.38;;;1.83;;
72557;SDS011;60583;50.094;8.748;2023-03-31T04:51:00;9.20;;;1.88;;
72557;SDS011;60583;50.094;8.748;2023-03-31T04:53:26;9.52;;;2.05;;
72557;SDS011;60583;50.094;8.748;2023-03-31T04:55:51;7.03;;;1.80;;
72557;SDS011;60583;50.094;8.748;2023-03-31T04:58:17;16.00;;;5.57;;
72557;SDS011;60583;50.094;8.748;2023-03-31T05:00:43;8.23;;;2.50;;
72557;SDS011;60583;50.094;8.748;2023-03-31T05:03:08;9.02;;;2.13;;
72557;SDS011;60583;50.094;8.748;2023-03-31T05:05:34;6.53;;;1.77;;
72557;SDS011;60583;50.094;8.748;2023-03-31T05:08:00;4.97;;;1.52;;
72557;SDS011;60583;50.094;8.748;2023-03-31T05:10:26;6.97;;;1.85;;
72557;SDS011;60583;50.094;8.748;2023-03-31T05:12:52;7.40;;;2.00;;
72557;SDS011;60583;50.094;8.748;2023-03-31T05:15:20;6.43;;;1.70;;
72557;SDS011;60583;50.094;8.748;2023-03-31T05:17:46;6.13;;;1.90;;
72557;SDS011;60583;50.094;8.748;2023-03-31T05:20:12;7.45;;;1.95;;
72557;SDS011;60583;50.094;8.748;2023-03-31T05:22:39;7.63;;;1.92;;
72557;SDS011;60583;50.094;8.748;2023-03-31T05:25:05;7.18;;;1.90;;
72557;SDS011;60583;50.094;8.748;2023-03-31T05:27:32;7.10;;;1.92;;
72557;SDS011;60583;50.094;8.748;2023-03-31T05:30:00;5.38;;;1.70;;
72557;SDS011;60583;50.094;8.748;2023-03-31T05:32:26;5.72;;;1.77;;
72557;SDS011;60583;50.094;8.748;2023-03-31T05:34:52;9.43;;;1.80;;
72557;SDS011;60583;50.094;8.748;2023-03-31T05:37:21;6.60;;;1.67;;
72557;SDS011;60583;50.094;8.748;2023-03-31T05:39:48;7.55;;;1.77;;
72557;SDS011;60583;50.094;8.748;2023-03-31T05:42:14;8.63;;;2.08;;
72557;SDS011;60583;50.094;8.748;2023-03-31T05:44:39;6.57;;;1.50;;
72557;SDS011;60583;50.094;8.748;2023-03-31T05:47:05;5.43;;;1.70;;
72557;SDS011;60583;50.094;8.748;2023-03-31T05:49:30;6.90;;;1.90;;
72557;SDS011;60583;50.094;8.748;2023-03-31T05:51:56;8.07;;;1.65;;
72557;SDS011;60583;50.094;8.748;2023-03-31T05:54:21;8.23;;;1.85;;
72557;SDS011;60583;50.094;8.748;2023-03-31T05:56:47;9.60;;;2.00;;
72557;SDS011;60583;50.094;8.748;2023-03-31T05:59:13;8.80;;;2.00;;
72557;SDS011;60583;50.094;8.748;2023-03-31T06:01:39;7.93;;;2.15;;
72557;SDS011;60583;50.094;8.748;2023-03-31T06:04:05;6.68;;;2.20;;
72557;SDS011;60583;50.094;8.748;2023-03-31T06:06:30;7.55;;;2.00;;
72557;SDS011;60583;50.094;8.748;2023-03-31T06:08:57;7.35;;;1.67;;
72557;SDS011;60583;50.094;8.748;2023-03-31T06:11:22;7.75;;;2.53;;
72557;SDS011;60583;50.094;8.748;2023-03-31T06:13:48;8.85;;;2.78;;
72557;SDS011;60583;50.094;8.748;2023-03-31T06:16:14;8.70;;;2.95;;
72557;SDS011;60583;50.094;8.748;2023-03-31T06:18:41;9.55;;;2.58;;
72557;SDS011;60583;50.094;8.748;2023-03-31T06:21:07;8.68;;;2.70;;
72557;SDS011;60583;50.094;8.748;2023-03-31T06:23:36;6.32;;;2.08;;
72557;SDS011;60583;50.094;8.748;2023-03-31T06:26:02;8.77;;;2.10;;
72557;SDS011;60583;50.094;8.748;2023-03-31T06:28:31;8.00;;;2.13;;
72557;SDS011;60583;50.094;8.748;2023-03-31T06:31:03;5.53;;;2.05;;
72557;SDS011;60583;50.094;8.748;2023-03-31T06:33:39;5.95;;;2.05;;
72557;SDS011;60583;50.094;8.748;2023-03-31T06:36:06;8.40;;;2.30;;
72557;SDS011;60583;50.094;8.748;2023-03-31T06:38:33;5.28;;;1.67;;
72557;SDS011;60583;50.094;8.748;2023-03-31T06:41:00;7.22;;;1.95;;
72557;SDS011;60583;50.094;8.748;2023-03-31T06:43:27;8.15;;;2.20;;
72557;SDS011;60583;50.094;8.748;2023-03-31T06:45:53;6.15;;;2.08;;
72557;SDS011;60583;50.094;8.748;2023-03-31T06:48:19;6.68;;;1.75;;
72557;SDS011;60583;50.094;8.748;2023-03-31T06:50:44;8.48;;;2.50;;
72557;SDS011;60583;50.094;8.748;2023-03-31T06:53:10;5.85;;;1.90;;
72557;SDS011;60583;50.094;8.748;2023-03-31T06:55:36;5.60;;;2.00;;
72557;SDS011;60583;50.094;8.748;2023-03-31T06:58:02;8.48;;;2.58;;
72557;SDS011;60583;50.094;8.748;2023-03-31T07:00:30;7.22;;;2.20;;
72557;SDS011;60583;50.094;8.748;2023-03-31T07:02:57;8.40;;;2.38;;
72557;SDS011;60583;50.094;8.748;2023-03-31T07:05:22;6.88;;;2.40;;
72557;SDS011;60583;50.094;8.748;2023-03-31T07:10:19;7.45;;;2.33;;
72557;SDS011;60583;50.094;8.748;2023-03-31T07:12:45;10.93;;;2.90;;
72557;SDS011;60583;50.094;8.748;2023-03-31T07:15:11;10.10;;;2.95;;
72557;SDS011;60583;50.094;8.748;2023-03-31T07:17:36;7.07;;;2.65;;
72557;SDS011;60583;50.094;8.748;2023-03-31T07:20:06;7.22;;;2.78;;
72557;SDS011;60583;50.094;8.748;2023-03-31T07:22:40;7.53;;;3.20;;
72557;SDS011;60583;50.094;8.748;2023-03-31T07:25:06;9.98;;;3.88;;
72557;SDS011;60583;50.094;8.748;2023-03-31T07:27:33;7.03;;;2.95;;
72557;SDS011;60583;50.094;8.748;2023-03-31T07:29:59;7.32;;;3.03;;
72557;SDS011;60583;50.094;8.748;2023-03-31T07:32:25;10.32;;;2.90;;
72557;SDS011;60583;50.094;8.748;2023-03-31T07:34:54;8.18;;;3.20;;
72557;SDS011;60583;50.094;8.748;2023-03-31T07:37:19;7.93;;;2.90;;
72557;SDS011;60583;50.094;8.748;2023-03-31T07:39:46;5.75;;;2.90;;
72557;SDS011;60583;50.094;8.748;2023-03-31T07:42:12;6.82;;;3.10;;
72557;SDS011;60583;50.094;8.748;2023-03-31T07:44:37;8.88;;;3.80;;
72557;SDS011;60583;50.094;8.748;2023-03-31T07:47:03;7.50;;;3.70;;
72557;SDS011;60583;50.094;8.748;2023-03-31T07:49:31;7.47;;;3.65;;
72557;SDS011;60583;50.094;8.748;2023-03-31T07:51:58;9.30;;;3.75;;
72557;SDS011;60583;50.094;8.748;2023-03-31T07:54:23;9.07;;;4.13;;
72557;SDS011;60583;50.094;8.748;2023-03-31T07:56:49;8.55;;;3.85;;
72557;SDS011;60583;50.094;8.748;2023-03-31T07:59:15;8.80;;;4.00;;
72557;SDS011;60583;50.094;8.748;2023-03-31T08:01:40;10.10;;;4.10;;
72557;SDS011;60583;50.094;8.748;2023-03-31T08:04:06;9.70;;;3.90;;
72557;SDS011;60583;50.094;8.748;2023-03-31T08:06:31;8.45;;;3.78;;
72557;SDS011;60583;50.094;8.748;2023-03-31T08:08:59;8.82;;;3.42;;
72557;SDS011;60583;50.094;8.748;2023-03-31T08:11:25;8.25;;;3.80;;
72557;SDS011;60583;50.094;8.748;2023-03-31T08:13:51;7.25;;;3.70;;
72557;SDS011;60583;50.094;8.748;2023-03-31T08:16:17;8.55;;;4.30;;
72557;SDS011;60583;50.094;8.748;2023-03-31T08:18:42;8.98;;;4.10;;
72557;SDS011;60583;50.094;8.748;2023-03-31T08:21:08;8.70;;;4.07;;
72557;SDS011;60583;50.094;8.748;2023-03-31T08:23:36;8.38;;;3.83;;
72557;SDS011;60583;50.094;8.748;2023-03-31T08:26:15;10.68;;;4.13;;
72557;SDS011;60583;50.094;8.748;2023-03-31T08:28:42;8.43;;;4.20;;
72557;SDS011;60583;50.094;8.748;2023-03-31T08:31:08;10.23;;;4.40;;
72557;SDS011;60583;50.094;8.748;2023-03-31T08:33:35;12.27;;;4.40;;
72557;SDS011;60583;50.094;8.748;2023-03-31T08:36:05;7.72;;;4.35;;
72557;SDS011;60583;50.094;8.748;2023-03-31T08:38:40;8.18;;;4.22;;
72557;SDS011;60583;50.094;8.748;2023-03-31T08:41:21;7.38;;;4.47;;
72557;SDS011;60583;50.094;8.748;2023-03-31T08:44:03;7.50;;;3.83;;
72557;SDS011;60583;50.094;8.748;2023-03-31T08:46:35;10.93;;;5.55;;
72557;SDS011;60583;50.094;8.748;2023-03-31T08:49:13;9.75;;;4.45;;
72557;SDS011;60583;50.094;8.748;2023-03-31T08:51:42;7.55;;;4.07;;
72557;SDS011;60583;50.094;8.748;2023-03-31T08:56:50;8.23;;;3.70;;
72557;SDS011;60583;50.094;8.748;2023-03-31T08:59:20;7.10;;;3.83;;
72557;SDS011;60583;50.094;8.748;2023-03-31T09:01:48;6.80;;;3.70;;
72557;SDS011;60583;50.094;8.748;2023-03-31T09:04:23;8.25;;;3.65;;
72557;SDS011;60583;50.094;8.748;2023-03-31T09:06:57;9.48;;;3.90;;
72557;SDS011;60583;50.094;8.748;2023-03-31T09:09:38;6.35;;;3.28;;
72557;SDS011;60583;50.094;8.748;2023-03-31T09:12:16;9.60;;;3.28;;
72557;SDS011;60583;50.094;8.748;2023-03-31T09:14:54;8.60;;;3.20;;
72557;SDS011;60583;50.094;8.748;2023-03-31T09:17:40;5.75;;;2.78;;
72557;SDS011;60583;50.094;8.748;2023-03-31T09:20:22;5.50;;;2.85;;
72557;SDS011;60583;50.094;8.748;2023-03-31T09:22:54;6.07;;;3.00;;
72557;SDS011;60583;50.094;8.748;2023-03-31T09:25:26;7.45;;;2.58;;
72557;SDS011;60583;50.094;8.748;2023-03-31T09:30:26;5.35;;;2.60;;
72557;SDS011;60583;50.094;8.748;2023-03-31T09:35:36;5.75;;;2.10;;
72557;SDS011;60583;50.094;8.748;2023-03-31T09:38:02;4.85;;;1.88;;
72557;SDS011;60583;50.094;8.748;2023-03-31T09:40:28;5.68;;;2.05;;
72557;SDS011;60583;50.094;8.748;2023-03-31T09:42:57;6.22;;;2.33;;
72557;SDS011;60583;50.094;8.748;2023-03-31T09:45:25;5.60;;;2.22;;
72557;SDS011;60583;50.094;8.748;2023-03-31T09:47:56;4.55;;;2.22;;
72557;SDS011;60583;50.094;8.748;2023-03-31T09:50:23;4.60;;;2.00;;
72557;SDS011;60583;50.094;8.748;2023-03-31T09:52:54;7.18;;;2.60;;
72557;SDS011;60583;50.094;8.748;2023-03-31T09:55:23;6.15;;;2.25;;
72557;SDS011;60583;50.094;8.748;2023-03-31T09:57:55;7.47;;;2.35;;
72557;SDS011;60583;50.094;8.748;2023-03-31T10:00:24;4.97;;;2.10;;
72557;SDS011;60583;50.094;8.748;2023-03-31T10:02:55;5.60;;;2.17;;
72557;SDS011;60583;50.094;8.748;2023-03-31T10:05:29;8.10;;;2.40;;
72557;SDS011;60583;50.094;8.748;2023-03-31T10:08:42;6.78;;;1.80;;
72557;SDS011;60583;50.094;8.748;2023-03-31T10:10:49;4.53;;;1.90;;
72557;SDS011;60583;50.094;8.748;2023-03-31T10:13:16;6.03;;;2.13;;
72557;SDS011;60583;50.094;8.748;2023-03-31T10:15:45;5.63;;;2.17;;
72557;SDS011;60583;50.094;8.748;2023-03-31T10:18:14;7.40;;;2.00;;
72557;SDS011;60583;50.094;8.748;2023-03-31T10:20:48;7.85;;;2.10;;
72557;SDS011;60583;50.094;8.748;2023-03-31T10:25:46;7.43;;;2.20;;
72557;SDS011;60583;50.094;8.748;2023-03-31T10:28:14;6.28;;;2.92;;
72557;SDS011;60583;50.094;8.748;2023-03-31T10:30:46;12.13;;;4.85;;
72557;SDS011;60583;50.094;8.748;2023-03-31T10:33:26;8.55;;;2.40;;
72557;SDS011;60583;50.094;8.748;2023-03-31T10:35:54;7.00;;;2.45;;
72557;SDS011;60583;50.094;8.748;2023-03-31T10:38:31;5.18;;;2.35;;
72557;SDS011;60583;50.094;8.748;2023-03-31T10:41:00;8.40;;;1.98;;
72557;SDS011;60583;50.094;8.748;2023-03-31T10:43:27;7.40;;;2.92;;
72557;SDS011;60583;50.094;8.748;2023-03-31T10:45:57;5.57;;;1.95;;
72557;SDS011;60583;50.094;8.748;2023-03-31T10:48:29;3.45;;;1.10;;
72557;SDS011;60583;50.094;8.748;2023-03-31T10:50:57;4.88;;;1.30;;
72557;SDS011;60583;50.094;8.748;2023-03-31T10:59:13;2.90;;;1.05;;
72557;SDS011;60583;50.094;8.748;2023-03-31T11:07:19;3.10;;;0.80;;
72557;SDS011;60583;50.094;8.748;2023-03-31T11:12:59;1.15;;;0.30;;
72557;SDS011;60583;50.094;8.748;2023-03-31T11:20:56;3.30;;;0.60;;
72557;SDS011;60583;50.094;8.748;2023-03-31T11:23:42;2.95;;;0.70;;
72557;SDS011;60583;50.094;8.748;2023-03-31T11:26:13;4.07;;;0.70;;
72557;SDS011;60583;50.094;8.748;2023-03-31T11:34:26;2.42;;;1.00;;
72557;SDS011;60583;50.094;8.748;2023-03-31T11:42:46;4.75;;;1.60;;
72557;SDS011;60583;50.094;8.748;2023-03-31T11:45:16;5.20;;;1.20;;
72557;SDS011;60583;50.094;8.748;2023-03-31T11:47:46;4.68;;;1.38;;
72557;SDS011;60583;50.094;8.748;2023-03-31T11:50:19;4.88;;;1.20;;
72557;SDS011;60583;50.094;8.748;2023-03-31T11:55:29;5.45;;;1.40;;
72557;SDS011;60583;50.094;8.748;2023-03-31T11:58:04;7.07;;;1.40;;
72557;SDS011;60583;50.094;8.748;2023-03-31T12:03:31;7.28;;;1.65;;
72557;SDS011;60583;50.094;8.748;2023-03-31T12:06:01;5.30;;;1.85;;
72557;SDS011;60583;50.094;8.748;2023-03-31T12:08:36;5.45;;;1.60;;
72557;SDS011;60583;50.094;8.748;2023-03-31T12:11:10;8.40;;;1.70;;
72557;SDS011;60583;50.094;8.748;2023-03-31T12:16:50;8.52;;;1.85;;
72557;SDS011;60583;50.094;8.748;2023-03-31T12:22:03;8.18;;;1.98;;
72557;SDS011;60583;50.094;8.748;2023-03-31T12:24:37;6.63;;;1.80;;
72557;SDS011;60583;50.094;8.748;2023-03-31T12:27:16;6.47;;;1.70;;
72557;SDS011;60583;50.094;8.748;2023-03-31T12:30:09;9.10;;;1.77;;
72557;SDS011;60583;50.094;8.748;2023-03-31T12:44:34;8.55;;;1.67;;
72557;SDS011;60583;50.094;8.748;2023-03-31T12:47:08;7.35;;;1.70;;
72557;SDS011;60583;50.094;8.748;2023-03-31T12:52:22;7.90;;;2.30;;
72557;SDS011;60583;50.094;8.748;2023-03-31T12:57:47;6.60;;;1.27;;
72557;SDS011;60583;50.094;8.748;2023-03-31T13:02:45;4.47;;;1.30;;
72557;SDS011;60583;50.094;8.748;2023-03-31T13:08:08;4.43;;;1.10;;
72557;SDS011;60583;50.094;8.748;2023-03-31T13:13:22;6.50;;;1.20;;
72557;SDS011;60583;50.094;8.748;2023-03-31T13:15:50;7.53;;;1.15;;
72557;SDS011;60583;50.094;8.748;2023-03-31T13:18:18;6.15;;;1.27;;
72557;SDS011;60583;50.094;8.748;2023-03-31T13:20:46;6.30;;;1.10;;
72557;SDS011;60583;50.094;8.748;2023-03-31T13:23:22;6.28;;;1.10;;
72557;SDS011;60583;50.094;8.748;2023-03-31T13:25:55;8.95;;;2.47;;
72557;SDS011;60583;50.094;8.748;2023-03-31T13:28:27;6.20;;;1.40;;
72557;SDS011;60583;50.094;8.748;2023-03-31T13:31:00;7.82;;;1.77;;
72557;SDS011;60583;50.094;8.748;2023-03-31T13:36:03;8.23;;;1.80;;
72557;SDS011;60583;50.094;8.748;2023-03-31T13:44:31;3.20;;;0.90;;
72557;SDS011;60583;50.094;8.748;2023-03-31T13:50:23;4.18;;;1.30;;
72557;SDS011;60583;50.094;8.748;2023-03-31T14:03:55;0.90;;;0.28;;
72557;SDS011;60583;50.094;8.748;2023-03-31T14:06:53;2.03;;;0.57;;
72557;SDS011;60583;50.094;8.748;2023-03-31T14:09:31;0.70;;;0.30;;
72557;SDS011;60583;50.094;8.748;2023-03-31T14:11:59;2.42;;;0.40;;
72557;SDS011;60583;50.094;8.748;2023-03-31T14:14:25;2.65;;;0.50;;
72557;SDS011;60583;50.094;8.748;2023-03-31T14:16:55;1.67;;;0.60;;
72557;SDS011;60583;50.094;8.748;2023-03-31T14:19:46;2.53;;;0.45;;
72557;SDS011;60583;50.094;8.748;2023-03-31T14:30:54;4.88;;;0.75;;
72557;SDS011;60583;50.094;8.748;2023-03-31T14:33:41;2.90;;;0.60;;
72557;SDS011;60583;50.094;8.748;2023-03-31T14:38:50;2.85;;;0.80;;
72557;SDS011;60583;50.094;8.748;2023-03-31T14:41:17;2.15;;;0.60;;
72557;SDS011;60583;50.094;8.748;2023-03-31T14:43:48;2.33;;;0.60;;
72557;SDS011;60583;50.094;8.748;2023-03-31T14:46:18;2.85;;;0.80;;
72557;SDS011;60583;50.094;8.748;2023-03-31T14:48:46;2.30;;;0.63;;
72557;SDS011;60583;50.094;8.748;2023-03-31T14:51:15;2.40;;;0.55;;
72557;SDS011;60583;50.094;8.748;2023-03-31T14:53:57;3.17;;;0.80;;
72557;SDS011;60583;50.094;8.748;2023-03-31T14:56:29;2.75;;;0.80;;
72557;SDS011;60583;50.094;8.748;2023-03-31T14:58:58;3.47;;;0.80;;
72557;SDS011;60583;50.094;8.748;2023-03-31T15:01:27;3.78;;;0.68;;
72557;SDS011;60583;50.094;8.748;2023-03-31T15:04:09;2.28;;;0.65;;
72557;SDS011;60583;50.094;8.748;2023-03-31T15:06:39;3.50;;;0.95;;
72557;SDS011;60583;50.094;8.748;2023-03-31T15:09:06;3.00;;;0.68;;
72557;SDS011;60583;50.094;8.748;2023-03-31T15:11:38;2.45;;;0.70;;
72557;SDS011;60583;50.094;8.748;2023-03-31T15:14:03;3.70;;;0.80;;
72557;SDS011;60583;50.094;8.748;2023-03-31T15:19:23;5.53;;;1.10;;
72557;SDS011;60583;50.094;8.748;2023-03-31T15:21:56;4.38;;;1.33;;
72557;SDS011;60583;50.094;8.748;2023-03-31T15:24:29;3.67;;;0.80;;
72557;SDS011;60583;50.094;8.748;2023-03-31T15:27:02;5.82;;;1.25;;
72557;SDS011;60583;50.094;8.748;2023-03-31T15:29:36;4.35;;;0.90;;
72557;SDS011;60583;50.094;8.748;2023-03-31T15:32:07;5.85;;;1.00;;
72557;SDS011;60583;50.094;8.748;2023-03-31T15:34:39;3.58;;;1.10;;
72557;SDS011;60583;50.094;8.748;2023-03-31T15:37:07;3.88;;;0.60;;
72557;SDS011;60583;50.094;8.748;2023-03-31T15:39:34;2.00;;;0.57;;
72557;SDS011;60583;50.094;8.748;2023-03-31T15:42:02;3.47;;;0.63;;
72557;SDS011;60583;50.094;8.748;2023-03-31T15:44:35;3.83;;;0.75;;
72557;SDS011;60583;50.094;8.748;2023-03-31T15:47:18;4.15;;;0.80;;
72557;SDS011;60583;50.094;8.748;2023-03-31T15:52:37;5.93;;;1.08;;
72557;SDS011;60583;50.094;8.748;2023-03-31T15:55:43;4.55;;;0.95;;
72557;SDS011;60583;50.094;8.748;2023-03-31T15:58:05;7.38;;;1.00;;
72557;SDS011;60583;50.094;8.748;2023-03-31T16:00:44;3.67;;;0.90;;
72557;SDS011;60583;50.094;8.748;2023-03-31T16:03:13;4.75;;;1.15;;
72557;SDS011;60583;50.094;8.748;2023-03-31T16:08:30;3.78;;;0.93;;
72557;SDS011;60583;50.094;8.748;2023-03-31T16:11:02;5.13;;;1.05;;
72557;SDS011;60583;50.094;8.748;2023-03-31T16:13:33;6.35;;;1.58;;
72557;SDS011;60583;50.094;8.748;2023-03-31T16:16:06;4.72;;;1.48;;
72557;SDS011;60583;50.094;8.748;2023-03-31T16:18:35;4.70;;;1.60;;
72557;SDS011;60583;50.094;8.748;2023-03-31T16:21:04;8.35;;;1.73;;
72557;SDS011;60583;50.094;8.748;2023-03-31T16:23:33;5.55;;;1.23;;
72557;SDS011;60583;50.094;8.748;2023-03-31T16:26:02;4.57;;;0.80;;
72557;SDS011;60583;50.094;8.748;2023-03-31T16:28:30;3.95;;;0.98;;
72557;SDS011;60583;50.094;8.748;2023-03-31T16:30:58;5.18;;;1.42;;
72557;SDS011;60583;50.094;8.748;2023-03-31T16:33:26;4.68;;;1.10;;
72557;SDS011;60583;50.094;8.748;2023-03-31T16:35:55;5.15;;;1.02;;
72557;SDS011;60583;50.094;8.748;2023-03-31T16:38:26;3.35;;;0.80;;
72557;SDS011;60583;50.094;8.748;2023-03-31T16:43:21;6.85;;;1.20;;
72557;SDS011;60583;50.094;8.748;2023-03-31T16:45:58;9.32;;;2.40;;
72557;SDS011;60583;50.094;8.748;2023-03-31T16:48:27;5.88;;;1.42;;
72557;SDS011;60583;50.094;8.748;2023-03-31T16:50:54;5.43;;;1.23;;
72557;SDS011;60583;50.094;8.748;2023-03-31T16:53:22;4.50;;;0.90;;
72557;SDS011;60583;50.094;8.748;2023-03-31T16:55:51;3.20;;;0.70;;
72557;SDS011;60583;50.094;8.748;2023-03-31T16:58:17;4.68;;;1.00;;
72557;SDS011;60583;50.094;8.748;2023-03-31T17:00:43;4.85;;;0.90;;
72557;SDS011;60583;50.094;8.748;2023-03-31T17:03:10;5.15;;;1.02;;
72557;SDS011;60583;50.094;8.748;2023-03-31T17:05:43;4.85;;;1.17;;
72557;SDS011;60583;50.094;8.748;2023-03-31T17:08:10;5.38;;;1.17;;
72557;SDS011;60583;50.094;8.748;2023-03-31T17:10:37;6.85;;;1.45;;
72557;SDS011;60583;50.094;8.748;2023-03-31T17:13:03;7.55;;;1.42;;
72557;SDS011;60583;50.094;8.748;2023-03-31T17:15:29;6.05;;;1.63;;
72557;SDS011;60583;50.094;8.748;2023-03-31T17:17:56;11.18;;;1.45;;
72557;SDS011;60583;50.094;8.748;2023-03-31T17:20:25;4.22;;;1.10;;
72557;SDS011;60583;50.094;8.748;2023-03-31T17:22:51;7.60;;;1.30;;
72557;SDS011;60583;50.094;8.748;2023-03-31T17:25:18;6.15;;;1.20;;
72557;SDS011;60583;50.094;8.748;2023-03-31T17:27:44;5.47;;;1.00;;
72557;SDS011;60583;50.094;8.748;2023-03-31T17:30:10;6.38;;;1.20;;
72557;SDS011;60583;50.094;8.748;2023-03-31T17:32:36;4.78;;;1.30;;
72557;SDS011;60583;50.094;8.748;2023-03-31T17:35:02;7.20;;;1.63;;
72557;SDS011;60583;50.094;8.748;2023-03-31T17:37:28;6.90;;;1.42;;
72557;SDS011;60583;50.094;8.748;2023-03-31T17:39:54;5.43;;;1.25;;
72557;SDS011;60583;50.094;8.748;2023-03-31T17:42:19;6.15;;;1.30;;
72557;SDS011;60583;50.094;8.748;2023-03-31T17:44:45;5.30;;;1.33;;
72557;SDS011;60583;50.094;8.748;2023-03-31T17:47:14;4.50;;;1.20;;
72557;SDS011;60583;50.094;8.748;2023-03-31T17:49:40;6.10;;;1.52;;
72557;SDS011;60583;50.094;8.748;2023-03-31T17:52:06;10.48;;;4.32;;
72557;SDS011;60583;50.094;8.748;2023-03-31T17:54:31;5.93;;;1.50;;
72557;SDS011;60583;50.094;8.748;2023-03-31T17:56:57;6.82;;;1.55;;
72557;SDS011;60583;50.094;8.748;2023-03-31T17:59:23;6.28;;;1.95;;
72557;SDS011;60583;50.094;8.748;2023-03-31T18:01:48;6.35;;;1.80;;